Terminal Aerodrome Forecast
Issued by NWS Charleston, WV

Home | Current Version | Previous Version | Text Only | Print | Product List | Glossary On
Versions: 1 2 3 4 5 6 7 8 9 10 11 12 13 14 15 16 17 18 19 20 21 22
840
FTUS41 KRLX 201739
TAFHTS
TAF
KHTS 201739Z 2018/2118 23008KT P6SM SCT025 BKN040
      TEMPO 2018/2020 BKN025
     FM202100 23006KT P6SM BKN050
     FM210800 20003KT 5SM BR BKN100
     FM211300 VRB03KT P6SM BKN100=

USA.gov is the U.S. government's official web portal to all federal, state and local government web resources and services.